createdAt,value
2019-02-23T00:02:12.826Z,84.00
2019-02-23T00:04:51.911Z,84.40
2019-02-23T00:07:31.694Z,84.70
2019-02-23T00:10:11.050Z,84.20
2019-02-23T00:12:50.267Z,83.20
2019-02-23T00:15:29.387Z,82.80
2019-02-23T00:18:14.067Z,83.50
2019-02-23T00:20:53.560Z,83.70
2019-02-23T00:23:32.801Z,83.70
2019-02-23T00:26:11.924Z,82.20
2019-02-23T00:28:51.982Z,81.50
2019-02-23T00:31:33.459Z,82.00
2019-02-23T00:34:12.427Z,82.40
2019-02-23T00:36:51.547Z,82.60
2019-02-23T00:39:30.791Z,80.80
2019-02-23T00:42:09.742Z,80.10
2019-02-23T00:44:50.068Z,80.00
2019-02-23T00:47:31.681Z,80.80
2019-02-23T00:50:10.684Z,79.50
2019-02-23T00:52:50.755Z,78.10
2019-02-23T00:55:29.955Z,78.00
2019-02-23T00:58:09.197Z,77.90
2019-02-23T01:00:48.191Z,78.50
2019-02-23T01:03:27.386Z,78.30
2019-02-23T01:06:06.424Z,77.30
2019-02-23T01:08:46.688Z,76.20
2019-02-23T01:11:25.930Z,77.00
2019-02-23T01:14:04.975Z,76.70
2019-02-23T01:16:44.174Z,75.80
2019-02-23T01:19:23.189Z,75.70
2019-02-23T01:22:02.810Z,76.10
2019-02-23T01:24:43.006Z,75.50
2019-02-23T01:27:22.025Z,73.90
2019-02-23T01:30:02.098Z,74.60
2019-02-23T01:32:44.108Z,73.90
2019-02-23T01:35:24.339Z,74.20
2019-02-23T01:38:03.485Z,73.80
2019-02-23T01:40:42.677Z,73.20
2019-02-23T01:43:21.732Z,73.50
2019-02-23T01:46:00.896Z,73.20
2019-02-23T01:48:40.947Z,73.60
2019-02-23T01:51:19.728Z,73.70
2019-02-23T01:53:58.809Z,73.50
2019-02-23T01:56:37.953Z,73.80
2019-02-23T01:59:17.311Z,73.70
2019-02-23T02:01:56.328Z,74.10
2019-02-23T02:04:39.498Z,73.30
2019-02-23T02:07:21.681Z,73.30
2019-02-23T02:10:00.713Z,73.60
2019-02-23T02:12:40.950Z,74.40
2019-02-23T02:15:20.996Z,73.70
2019-02-23T02:18:00.462Z,72.90
2019-02-23T02:20:39.911Z,73.50
2019-02-23T02:23:20.741Z,73.10
2019-02-23T02:25:59.784Z,72.50
2019-02-23T02:28:39.408Z,72.50
2019-02-23T02:31:18.509Z,72.30
2019-02-23T02:34:20.637Z,71.80
2019-02-23T02:37:00.551Z,72.50
2019-02-23T02:39:40.448Z,72.50
2019-02-23T02:42:19.829Z,70.00
2019-02-23T02:44:58.675Z,67.50
2019-02-23T02:47:38.258Z,67.00
2019-02-23T02:50:24.373Z,66.60
2019-02-23T02:52:59.072Z,65.20
2019-02-23T02:55:39.280Z,64.20
2019-02-23T02:58:22.221Z,63.90
2019-02-23T03:01:07.346Z,62.20
2019-02-23T03:03:47.649Z,62.30
2019-02-23T03:06:26.707Z,61.90
2019-02-23T03:09:06.171Z,58.90
2019-02-23T03:11:46.650Z,60.90
2019-02-23T03:14:25.798Z,62.30
2019-02-23T03:17:07.573Z,63.70
2019-02-23T03:19:46.596Z,61.00
2019-02-23T03:22:25.622Z,61.20
2019-02-23T03:25:07.495Z,60.80
2019-02-23T03:27:47.307Z,59.10
2019-02-23T03:30:26.466Z,58.90
2019-02-23T03:33:05.629Z,58.80
2019-02-23T03:35:48.007Z,59.40
2019-02-23T03:38:27.404Z,59.30
2019-02-23T03:41:07.188Z,59.80
2019-02-23T03:43:47.583Z,58.20
2019-02-23T03:46:29.665Z,58.20
2019-02-23T03:49:06.296Z,57.10
2019-02-23T03:51:44.754Z,57.60
2019-02-23T03:54:24.054Z,58.00
2019-02-23T03:57:03.218Z,56.30
2019-02-23T03:59:43.335Z,55.90
2019-02-23T04:02:22.516Z,55.50
2019-02-23T04:05:01.694Z,54.40
2019-02-23T04:07:40.967Z,53.90
2019-02-23T04:10:20.490Z,53.70
2019-02-23T04:13:00.637Z,54.60
2019-02-23T04:15:40.745Z,55.40
2019-02-23T04:18:19.791Z,55.20
2019-02-23T04:21:01.982Z,55.20
2019-02-23T04:23:39.550Z,54.50
2019-02-23T04:26:19.602Z,53.90
2019-02-23T04:28:58.862Z,54.00
2019-02-23T04:31:37.942Z,54.30
2019-02-23T04:34:18.468Z,55.40
2019-02-23T04:36:58.171Z,53.90
2019-02-23T04:39:42.151Z,53.80
2019-02-23T04:42:36.930Z,52.60
2019-02-23T04:45:21.829Z,51.60
2019-02-23T04:48:07.993Z,52.00
2019-02-23T04:50:49.483Z,51.00
2019-02-23T04:53:28.659Z,50.30
2019-02-23T04:56:09.538Z,49.70
2019-02-23T04:58:56.623Z,49.30
2019-02-23T05:01:37.596Z,48.50
2019-02-23T05:04:16.875Z,49.10
2019-02-23T05:07:02.913Z,47.90
2019-02-23T05:09:42.302Z,48.30
2019-02-23T05:12:22.574Z,46.40
2019-02-23T05:15:04.907Z,48.60
2019-02-23T05:17:44.165Z,45.80
2019-02-23T05:20:24.424Z,45.60
2019-02-23T05:23:04.997Z,45.90
2019-02-23T05:25:47.174Z,46.50
2019-02-23T05:28:28.877Z,47.00
2019-02-23T05:31:09.722Z,46.90
2019-02-23T05:33:51.420Z,46.40
2019-02-23T05:36:30.677Z,47.10
2019-02-23T05:39:12.564Z,45.80
2019-02-23T05:41:51.990Z,46.50
2019-02-23T05:44:31.334Z,47.00
2019-02-23T05:47:37.175Z,46.40
2019-02-23T05:50:19.876Z,46.30
2019-02-23T05:52:59.475Z,44.50
2019-02-23T05:55:46.719Z,44.10
2019-02-23T06:01:39.848Z,43.10
2019-02-23T06:04:25.930Z,43.70
2019-02-23T06:07:06.537Z,45.90
2019-02-23T06:09:44.812Z,44.80
2019-02-23T06:43:22.124Z,43.00
2019-02-23T06:46:03.847Z,43.30
2019-02-23T06:48:43.173Z,43.20
2019-02-23T06:51:22.423Z,41.90
2019-02-23T06:54:01.723Z,41.90
2019-02-23T06:56:41.434Z,41.00
2019-02-23T06:59:22.291Z,41.30
2019-02-23T07:02:03.361Z,42.50
2019-02-23T07:05:11.426Z,43.20
2019-02-23T07:07:53.514Z,42.50
2019-02-23T07:10:33.391Z,42.90
2019-02-23T07:13:13.013Z,42.80
2019-02-23T07:15:53.840Z,41.10
2019-02-23T07:18:34.292Z,41.40
2019-02-23T07:21:16.082Z,41.60
2019-02-23T07:23:58.411Z,41.10
2019-02-23T07:26:38.946Z,40.50
2019-02-23T07:29:19.175Z,40.80
2019-02-23T07:32:00.454Z,41.40
2019-02-23T07:34:39.969Z,43.00
2019-02-23T07:37:19.524Z,41.80
2019-02-23T07:39:58.957Z,43.20
2019-02-23T07:42:40.697Z,43.70
2019-02-23T07:45:20.281Z,44.20
2019-02-23T07:48:01.251Z,42.90
2019-02-23T07:50:41.071Z,41.30
2019-02-23T07:53:21.778Z,41.80
2019-02-23T07:56:01.578Z,42.90
2019-02-23T07:58:43.417Z,43.60
2019-02-23T08:01:23.805Z,44.80
2019-02-23T08:04:03.754Z,44.80
2019-02-23T08:06:43.927Z,46.00
2019-02-23T08:09:26.793Z,45.40
2019-02-23T08:12:07.740Z,45.00
2019-02-23T08:14:50.492Z,44.70
2019-02-23T08:17:31.766Z,44.40
2019-02-23T08:20:19.188Z,45.30
2019-02-23T08:23:01.470Z,45.60
2019-02-23T08:25:41.158Z,44.20
2019-02-23T08:28:21.092Z,43.80
2019-02-23T08:31:01.178Z,44.50
2019-02-23T08:33:41.044Z,45.80
2019-02-23T08:36:20.634Z,45.30
2019-02-23T08:39:00.297Z,45.40
2019-02-23T08:41:43.338Z,45.80
2019-02-23T08:44:23.402Z,45.50
2019-02-23T08:47:02.935Z,45.80
2019-02-23T08:49:45.932Z,45.80
2019-02-23T08:52:27.581Z,47.00
2019-02-23T08:55:07.280Z,46.00
2019-02-23T08:57:49.425Z,45.80
2019-02-23T09:00:29.837Z,46.10
2019-02-23T09:03:09.573Z,46.00
2019-02-23T09:05:49.146Z,46.20
2019-02-23T09:08:30.272Z,46.20
2019-02-23T09:11:10.061Z,46.80
2019-02-23T09:13:50.222Z,46.80
2019-02-23T09:16:29.687Z,47.00
2019-02-23T09:19:10.519Z,47.10
2019-02-23T09:21:51.127Z,46.50
2019-02-23T09:24:30.874Z,46.60
2019-02-23T09:27:10.559Z,47.20
2019-02-23T09:29:51.204Z,47.10
2019-02-23T09:32:34.289Z,47.10
2019-02-23T09:35:13.907Z,48.80
2019-02-23T09:37:54.656Z,48.80
2019-02-23T09:40:35.612Z,49.50
2019-02-23T09:43:17.589Z,49.10
2019-02-23T09:45:55.924Z,48.90
2019-02-23T09:48:36.758Z,50.00
2019-02-23T09:51:16.448Z,51.10
2019-02-23T09:53:55.849Z,51.60
2019-02-23T09:56:36.090Z,51.60
2019-02-23T09:59:15.171Z,51.70
2019-02-23T10:01:56.684Z,52.50
2019-02-23T10:04:37.463Z,53.10
2019-02-23T10:07:17.896Z,52.80
2019-02-23T10:09:56.017Z,53.70
2019-02-23T10:12:40.568Z,53.80
2019-02-23T10:15:21.673Z,53.70
2019-02-23T10:18:00.663Z,54.60
2019-02-23T10:20:41.951Z,54.50
2019-02-23T10:23:22.259Z,54.60
2019-02-23T10:26:01.720Z,55.40
2019-02-23T10:28:42.134Z,55.10
2019-02-23T10:31:21.729Z,56.40
2019-02-23T10:34:04.775Z,57.00
2019-02-23T10:36:44.753Z,56.60
2019-02-23T10:39:26.182Z,57.20
2019-02-23T10:42:05.447Z,57.80
2019-02-23T10:44:46.014Z,58.60
2019-02-23T10:47:25.333Z,57.80
2019-02-23T10:50:04.487Z,57.50
2019-02-23T10:52:45.565Z,58.30
2019-02-23T10:55:26.047Z,59.60
2019-02-23T10:58:05.258Z,59.10
2019-02-23T11:00:44.591Z,59.80
2019-02-23T11:06:22.987Z,63.00
2019-02-23T11:09:05.855Z,63.10
2019-02-23T11:11:48.283Z,62.00
2019-02-23T11:14:26.232Z,61.80
2019-02-23T11:17:05.242Z,61.50
2019-02-23T11:19:44.652Z,62.90
2019-02-23T11:22:23.750Z,64.20
2019-02-23T11:25:03.543Z,64.60
2019-02-23T11:27:43.700Z,64.80
2019-02-23T11:30:23.493Z,65.30
2019-02-23T11:33:02.730Z,66.10
2019-02-23T11:35:42.041Z,67.00
2019-02-23T11:38:21.480Z,67.10
2019-02-23T11:41:00.853Z,67.40
2019-02-23T11:43:40.212Z,68.10
2019-02-23T11:46:19.303Z,68.80
2019-02-23T11:48:59.239Z,69.30
2019-02-23T11:51:39.979Z,69.10
2019-02-23T11:54:20.371Z,68.30
2019-02-23T11:56:59.763Z,68.30
2019-02-23T11:59:39.017Z,68.80
2019-02-23T12:02:19.276Z,68.80
2019-02-23T12:04:58.911Z,69.20
2019-02-23T12:07:39.175Z,69.00
2019-02-23T12:10:18.668Z,68.90
2019-02-23T12:12:57.964Z,69.50
2019-02-23T12:15:37.151Z,70.40
2019-02-23T12:18:20.232Z,71.20
2019-02-23T12:21:00.628Z,71.10
2019-02-23T12:23:40.184Z,71.90
2019-02-23T12:26:19.391Z,72.70
2019-02-23T12:28:59.436Z,73.20
2019-02-23T12:31:39.465Z,73.90
2019-02-23T12:34:19.222Z,74.10
2019-02-23T12:36:58.631Z,74.70
2019-02-23T12:39:38.385Z,74.70
2019-02-23T12:42:18.202Z,75.50
2019-02-23T12:44:57.883Z,75.90
2019-02-23T12:47:37.664Z,75.60
2019-02-23T12:50:17.231Z,75.90
2019-02-23T12:52:59.688Z,75.90
2019-02-23T12:55:38.109Z,76.70
2019-02-23T12:58:17.987Z,76.40
2019-02-23T13:00:57.945Z,76.60
2019-02-23T13:03:37.711Z,76.50
2019-02-23T13:06:18.578Z,77.40
2019-02-23T13:09:19.763Z,77.10
2019-02-23T13:12:03.926Z,76.60
2019-02-23T13:15:01.482Z,76.40
2019-02-23T13:18:13.917Z,77.20
2019-02-23T13:21:25.620Z,77.70
2019-02-23T13:24:34.152Z,77.00
2019-02-23T13:28:06.354Z,76.40
2019-02-23T13:31:36.746Z,76.50
2019-02-23T13:34:59.716Z,76.70
2019-02-23T13:37:53.374Z,76.20
2019-02-23T13:41:27.348Z,76.70
2019-02-23T13:44:42.041Z,77.10
2019-02-23T13:48:11.464Z,77.50
2019-02-23T13:51:18.337Z,76.60
2019-02-23T13:54:39.153Z,76.50
2019-02-23T13:57:50.809Z,77.20
2019-02-23T14:00:56.931Z,77.80
2019-02-23T14:04:15.123Z,77.80
2019-02-23T14:07:35.281Z,77.10
2019-02-23T14:10:40.352Z,78.30
2019-02-23T14:13:57.891Z,79.70
2019-02-23T14:17:15.644Z,79.50
2019-02-23T14:20:10.315Z,79.20
2019-02-23T14:23:30.848Z,79.80
2019-02-23T14:27:04.657Z,81.30
2019-02-23T14:30:15.050Z,81.20
2019-02-23T14:33:20.741Z,80.50
2019-02-23T14:36:30.870Z,81.30
2019-02-23T14:39:45.777Z,81.90
2019-02-23T14:43:33.345Z,81.80
2019-02-23T14:46:56.571Z,82.20
2019-02-23T14:50:15.067Z,81.90
2019-02-23T14:53:31.156Z,82.60
2019-02-23T14:56:54.625Z,83.00
2019-02-23T15:00:04.527Z,82.30
2019-02-23T15:02:59.577Z,81.60
2019-02-23T15:06:20.996Z,81.70
2019-02-23T15:09:40.554Z,81.90
2019-02-23T15:12:42.628Z,81.60
2019-02-23T15:16:16.753Z,81.10
2019-02-23T15:19:24.249Z,81.80
2019-02-23T15:22:41.697Z,81.20
2019-02-23T15:26:07.764Z,80.20
2019-02-23T15:29:14.751Z,79.60
2019-02-23T15:32:43.039Z,79.60
2019-02-23T15:35:58.951Z,79.70
2019-02-23T15:39:24.262Z,80.10
2019-02-23T15:42:40.672Z,79.90
2019-02-23T15:45:42.833Z,80.00
2019-02-23T15:49:02.907Z,79.60
2019-02-23T15:51:46.671Z,80.70
2019-02-23T15:54:31.771Z,80.60
2019-02-23T15:57:11.216Z,80.60
2019-02-23T15:59:50.945Z,80.10
2019-02-23T16:02:30.506Z,80.70
2019-02-23T16:05:11.004Z,80.20
2019-02-23T16:07:52.077Z,79.90
2019-02-23T16:10:32.327Z,79.50
2019-02-23T16:13:13.929Z,79.60
2019-02-23T16:15:53.521Z,79.90
2019-02-23T16:18:32.887Z,79.60
2019-02-23T16:21:13.889Z,80.00
2019-02-23T16:23:53.108Z,80.30
2019-02-23T16:26:32.868Z,80.20
2019-02-23T16:32:47.175Z,80.20
2019-02-23T16:35:29.098Z,80.20
2019-02-23T16:38:08.881Z,79.80
2019-02-23T16:40:50.443Z,79.90
2019-02-23T16:43:31.305Z,79.90
2019-02-23T16:46:13.455Z,81.00
2019-02-23T16:48:53.200Z,81.50
2019-02-23T16:51:36.313Z,81.00
2019-02-23T16:54:21.168Z,80.50
2019-02-23T16:57:01.992Z,81.30
2019-02-23T16:59:41.982Z,81.10
2019-02-23T17:02:24.267Z,81.00
2019-02-23T17:05:03.407Z,80.40
2019-02-23T17:07:43.921Z,80.90
2019-02-23T17:10:23.607Z,81.40
2019-02-23T17:13:03.099Z,81.90
2019-02-23T17:15:46.027Z,81.50
2019-02-23T17:18:25.163Z,82.10
2019-02-23T17:21:04.503Z,81.40
2019-02-23T17:23:44.633Z,81.50
2019-02-23T17:26:27.139Z,81.90
2019-02-23T17:29:07.827Z,80.80
2019-02-23T17:31:48.605Z,80.60
2019-02-23T17:34:55.427Z,80.20
2019-02-23T17:41:50.337Z,80.90
2019-02-23T17:44:24.908Z,80.70
2019-02-23T17:47:07.744Z,80.90
2019-02-23T17:49:56.293Z,81.10
2019-02-23T17:52:40.514Z,81.40
2019-02-23T17:55:20.764Z,81.00
2019-02-23T17:57:59.973Z,80.50
2019-02-23T18:00:40.092Z,80.70
2019-02-23T18:03:20.344Z,81.60
2019-02-23T18:05:59.412Z,81.20
2019-02-23T18:08:38.861Z,80.50
2019-02-23T18:11:21.393Z,80.40
2019-02-23T18:14:01.044Z,81.00
2019-02-23T18:16:40.124Z,81.40
2019-02-23T18:19:19.086Z,80.90
2019-02-23T18:21:58.840Z,80.50
2019-02-23T18:24:41.223Z,80.90
2019-02-23T18:27:21.197Z,81.00
2019-02-23T18:30:09.451Z,81.20
2019-02-23T18:32:43.892Z,81.40
2019-02-23T18:35:25.310Z,81.00
2019-02-23T18:38:05.379Z,82.10
2019-02-23T18:40:45.593Z,82.30
2019-02-23T18:43:24.581Z,82.50
2019-02-23T18:46:04.768Z,82.40
2019-02-23T18:48:44.507Z,82.80
2019-02-23T18:51:23.948Z,82.40
2019-02-23T18:54:03.523Z,82.00
2019-02-23T18:56:43.658Z,82.10
2019-02-23T18:59:24.366Z,82.90
2019-02-23T19:02:04.143Z,82.60
2019-02-23T19:04:43.600Z,82.40
2019-02-23T19:07:24.587Z,82.40
2019-02-23T19:10:04.654Z,83.10
2019-02-23T19:12:47.195Z,83.80
2019-02-23T19:15:26.276Z,83.40
2019-02-23T19:18:05.433Z,83.00
2019-02-23T19:20:44.360Z,83.50
2019-02-23T19:23:23.506Z,82.50
2019-02-23T19:26:02.602Z,82.00
2019-02-23T19:28:45.288Z,81.10
2019-02-23T19:31:25.288Z,80.70
2019-02-23T19:34:04.754Z,80.50
2019-02-23T19:36:45.117Z,80.50
2019-02-23T19:39:24.695Z,80.70
2019-02-23T19:42:03.846Z,80.30
2019-02-23T19:44:43.186Z,80.70
2019-02-23T19:47:26.709Z,81.70
2019-02-23T19:50:10.504Z,81.30
2019-02-23T19:52:52.609Z,81.60
2019-02-23T19:55:32.004Z,81.40
2019-02-23T19:58:12.215Z,80.80
2019-02-23T20:00:51.648Z,81.10
2019-02-23T20:03:30.959Z,81.50
2019-02-23T20:06:10.171Z,81.70
2019-02-23T20:08:49.465Z,81.30
2019-02-23T20:11:29.571Z,80.90
2019-02-23T20:14:10.076Z,81.50
2019-02-23T20:17:03.208Z,82.80
2019-02-23T20:19:48.287Z,82.10
2019-02-23T20:22:30.480Z,81.20
2019-02-23T20:25:14.063Z,81.00
2019-02-23T20:27:54.211Z,81.90
2019-02-23T20:30:33.429Z,81.70
2019-02-23T20:33:23.871Z,81.30
2019-02-23T20:36:05.695Z,80.80
2019-02-23T20:38:51.050Z,81.00
2019-02-23T20:41:31.151Z,81.80
2019-02-23T20:44:10.618Z,81.40
2019-02-23T20:46:52.055Z,80.70
2019-02-23T20:49:31.896Z,80.50
2019-02-23T20:52:12.985Z,81.60
2019-02-23T20:54:54.100Z,81.90
2019-02-23T20:57:48.655Z,81.60
2019-02-23T21:00:28.852Z,81.30
2019-02-23T21:03:12.528Z,81.50
2019-02-23T21:05:53.045Z,82.80
2019-02-23T21:08:38.551Z,82.30
2019-02-23T21:11:17.863Z,81.60
2019-02-23T21:13:57.312Z,81.40
2019-02-23T21:16:36.649Z,82.70
2019-02-23T21:19:15.948Z,82.70
2019-02-23T21:21:56.176Z,82.20
2019-02-23T21:24:36.913Z,82.20
2019-02-23T21:27:17.476Z,82.10
2019-02-23T21:29:58.669Z,82.50
2019-02-23T21:32:39.943Z,82.50
2019-02-23T21:35:19.429Z,81.40
2019-02-23T21:37:58.540Z,82.10
2019-02-23T21:40:38.072Z,81.80
2019-02-23T21:43:19.279Z,81.80
2019-02-23T21:45:59.104Z,82.10
2019-02-23T21:48:42.612Z,82.20
2019-02-23T21:51:22.261Z,81.70
2019-02-23T21:54:09.741Z,82.00
2019-02-23T21:56:43.312Z,82.20
2019-02-23T21:59:22.397Z,82.10
2019-02-23T22:02:02.700Z,82.10
2019-02-23T22:07:38.088Z,80.70
2019-02-23T22:10:17.506Z,82.20
2019-02-23T22:12:58.764Z,82.50
2019-02-23T22:15:37.759Z,82.00
2019-02-23T22:18:17.565Z,81.80
2019-02-23T22:20:57.262Z,82.50
2019-02-23T22:23:36.237Z,83.40
2019-02-23T22:26:15.290Z,82.80
2019-02-23T22:28:55.531Z,83.10
2019-02-23T22:31:34.732Z,82.50
2019-02-23T22:34:13.838Z,82.60
2019-02-23T22:36:52.922Z,83.20
2019-02-23T22:39:33.099Z,82.20
2019-02-23T22:42:13.390Z,82.40
2019-02-23T22:44:52.974Z,83.00
2019-02-23T22:47:32.585Z,83.30
2019-02-23T22:50:11.812Z,82.80
2019-02-23T22:52:51.641Z,82.40
2019-02-23T22:55:37.247Z,82.30
2019-02-23T22:58:19.169Z,82.50
2019-02-23T23:01:19.006Z,82.70
2019-02-23T23:04:00.153Z,82.20
2019-02-23T23:06:41.970Z,82.00
2019-02-23T23:09:22.916Z,81.90
2019-02-23T23:12:03.579Z,82.60
2019-02-23T23:14:44.470Z,82.70
2019-02-23T23:17:23.682Z,81.90
2019-02-23T23:20:04.786Z,82.20
2019-02-23T23:22:44.761Z,82.60
2019-02-23T23:25:23.818Z,83.30
2019-02-23T23:28:03.075Z,83.20
2019-02-23T23:30:52.235Z,82.60
2019-02-23T23:33:31.275Z,82.90
2019-02-23T23:36:09.996Z,83.60
2019-02-23T23:38:50.910Z,83.90
2019-02-23T23:41:31.338Z,83.70
2019-02-23T23:44:11.278Z,84.00
2019-02-23T23:46:53.206Z,83.50
2019-02-23T23:49:33.728Z,83.80
2019-02-23T23:52:13.489Z,84.00
2019-02-23T23:54:53.804Z,84.10
2019-02-23T23:57:34.440Z,83.80
